Time;durP1;ratioP1;P1;durP2;ratioP2;P2;SDS_P1;SDS_P2;PMS_P1;PMS_P2;Temp;Humidity;BMP_temperature;BMP_pressure;BME280_temperature;BME280_humidity;BME280_pressure;Samples;Min_cycle;Max_cycle;Signal;HPM_P1;HPM_P2
2022/03/21 04:01:11;;;;;;;1.60;1.50;;;8.30;57.60;;;;;;5740466;23;20853;-75
2022/03/21 04:03:47;;;;;;;1.83;1.53;;;8.30;57.30;;;;;;4937246;29;20428;-75
2022/03/21 04:06:15;;;;;;;1.57;1.47;;;8.30;57.10;;;;;;4937221;29;20481;-75
2022/03/21 04:08:41;;;;;;;1.50;1.40;;;8.30;56.70;;;;;;4937133;29;20495;-75
2022/03/21 04:11:08;;;;;;;1.40;1.30;;;8.30;56.80;;;;;;4937015;29;20534;-75
2022/03/21 04:13:35;;;;;;;1.60;1.50;;;8.30;56.90;;;;;;4938308;29;20455;-75
2022/03/21 04:16:01;;;;;;;1.70;1.60;;;8.30;56.30;;;;;;4937045;29;20448;-75
2022/03/21 04:18:29;;;;;;;1.40;1.30;;;8.30;56.40;;;;;;4936888;29;20535;-76
2022/03/21 04:20:56;;;;;;;1.40;1.30;;;8.30;56.50;;;;;;4936847;29;20471;-75
2022/03/21 04:23:23;;;;;;;1.40;1.30;;;8.20;56.60;;;;;;4936864;29;20452;-75
2022/03/21 04:25:50;;;;;;;1.67;1.57;;;8.20;57.00;;;;;;4936814;29;20452;-75
2022/03/21 04:28:17;;;;;;;1.50;1.40;;;8.20;56.60;;;;;;4936785;29;20455;-75
2022/03/21 04:30:44;;;;;;;1.40;1.30;;;8.20;56.60;;;;;;4936721;29;20472;-75
2022/03/21 04:33:12;;;;;;;1.50;1.40;;;8.20;56.70;;;;;;4936755;29;20503;-74
2022/03/21 04:35:41;;;;;;;1.57;1.47;;;8.10;56.00;;;;;;4936522;29;20466;-75
2022/03/21 04:38:13;;;;;;;1.40;1.30;;;8.20;55.80;;;;;;4937026;29;20858;-75
2022/03/21 04:40:40;;;;;;;1.57;1.47;;;8.20;55.80;;;;;;4936609;29;20444;-75
2022/03/21 04:43:07;;;;;;;1.50;1.40;;;8.20;55.50;;;;;;4936566;29;20563;-75
2022/03/21 04:45:34;;;;;;;1.60;1.50;;;8.30;55.30;;;;;;4936544;29;20447;-75
2022/03/21 04:48:00;;;;;;;1.43;1.33;;;8.30;55.10;;;;;;4936485;29;20463;-75
2022/03/21 04:50:28;;;;;;;1.33;1.23;;;8.30;54.80;;;;;;4935799;29;20456;-75
2022/03/21 04:52:56;;;;;;;1.30;1.20;;;8.20;55.40;;;;;;4936442;29;20554;-75
2022/03/21 04:55:22;;;;;;;1.20;1.10;;;8.20;56.10;;;;;;4936107;29;20811;-74
2022/03/21 04:57:49;;;;;;;1.37;1.27;;;8.10;55.60;;;;;;4936333;29;20535;-75
2022/03/21 05:00:17;;;;;;;1.33;1.23;;;8.10;55.40;;;;;;4936298;29;20506;-75
2022/03/21 05:02:43;;;;;;;1.80;1.70;;;8.10;55.40;;;;;;4935952;29;20484;-75
2022/03/21 05:05:10;;;;;;;1.30;1.20;;;8.10;54.70;;;;;;4935933;29;20935;-75
2022/03/21 05:07:40;;;;;;;1.60;1.50;;;8.10;55.50;;;;;;4936203;29;20462;-75
2022/03/21 05:10:09;;;;;;;1.47;1.37;;;8.00;55.90;;;;;;4936253;29;20538;-74
2022/03/21 05:12:36;;;;;;;1.40;1.30;;;8.00;56.10;;;;;;4936135;29;20480;-75
2022/03/21 05:15:04;;;;;;;1.40;1.30;;;8.00;55.80;;;;;;4936185;29;20483;-75
2022/03/21 05:17:31;;;;;;;1.23;1.13;;;8.00;55.50;;;;;;4936105;29;20487;-75
2022/03/21 05:19:57;;;;;;;1.70;1.60;;;8.00;55.30;;;;;;4936154;29;20451;-75
2022/03/21 05:22:24;;;;;;;1.60;1.50;;;7.90;55.50;;;;;;4935682;29;21054;-75
2022/03/21 05:36:01;;;;;;;1.50;1.40;;;7.90;55.70;;;;;;4899268;29;20477;-75
2022/03/21 05:38:30;;;;;;;1.47;1.37;;;7.90;56.30;;;;;;4935954;29;20471;-75
2022/03/21 05:41:00;;;;;;;1.57;1.47;;;7.90;56.30;;;;;;4935876;29;20475;-76
2022/03/21 05:43:28;;;;;;;1.40;1.30;;;7.90;56.00;;;;;;4935957;29;20479;-74
2022/03/21 05:45:55;;;;;;;1.47;1.37;;;7.90;55.70;;;;;;4936395;29;20459;-75
2022/03/21 05:51:06;;;;;;;1.50;1.40;;;7.90;56.10;;;;;;4935917;29;20816;-75
2022/03/21 05:53:33;;;;;;;1.30;1.20;;;8.00;56.30;;;;;;4935923;29;20491;-75
2022/03/21 05:56:01;;;;;;;1.57;1.47;;;8.00;56.80;;;;;;4935518;29;20456;-75
2022/03/21 05:58:29;;;;;;;1.47;1.37;;;8.10;57.00;;;;;;4935764;29;20479;-75
2022/03/21 06:00:56;;;;;;;1.60;1.50;;;8.30;56.80;;;;;;4937550;29;20526;-75
2022/03/21 06:03:24;;;;;;;1.70;1.60;;;8.50;56.80;;;;;;4940295;29;20444;-75
2022/03/21 06:05:51;;;;;;;1.57;1.47;;;8.70;56.10;;;;;;4939808;29;20563;-74
2022/03/21 06:08:20;;;;;;;1.70;1.60;;;8.90;55.40;;;;;;4939364;29;20484;-75
2022/03/21 06:10:47;;;;;;;1.30;1.20;;;9.20;55.30;;;;;;4939301;29;20479;-75
2022/03/21 06:13:15;;;;;;;1.70;1.60;;;9.50;54.80;;;;;;4939387;29;20577;-75
2022/03/21 06:15:45;;;;;;;1.10;1.00;;;9.80;54.10;;;;;;4939168;29;20456;-75
2022/03/21 06:18:13;;;;;;;1.60;1.50;;;10.00;53.80;;;;;;4939081;29;20507;-76
2022/03/21 06:20:40;;;;;;;1.33;1.23;;;10.40;53.50;;;;;;4939046;29;20991;-76
2022/03/21 06:23:07;;;;;;;1.37;1.27;;;10.80;52.30;;;;;;4939029;29;20463;-75
2022/03/21 06:25:34;;;;;;;1.57;1.47;;;11.10;52.00;;;;;;4938994;29;20459;-74
2022/03/21 06:28:01;;;;;;;1.57;1.47;;;11.40;51.00;;;;;;4938974;29;20451;-74
2022/03/21 06:30:29;;;;;;;1.63;1.53;;;11.80;50.40;;;;;;4938669;29;20458;-75
2022/03/21 06:32:56;;;;;;;1.47;1.37;;;12.40;49.70;;;;;;4938556;29;21035;-75
2022/03/21 06:35:23;;;;;;;1.50;1.40;;;12.90;48.60;;;;;;4938824;29;20456;-75
2022/03/21 06:37:50;;;;;;;1.37;1.27;;;13.40;45.90;;;;;;4938758;29;20513;-75
2022/03/21 06:40:17;;;;;;;1.50;1.40;;;13.90;46.60;;;;;;4938727;29;20463;-76
2022/03/21 06:42:43;;;;;;;1.40;1.30;;;14.60;45.70;;;;;;4938637;29;20468;-75
2022/03/21 06:45:10;;;;;;;1.30;1.20;;;15.00;42.40;;;;;;4938690;29;20447;-75
2022/03/21 06:47:37;;;;;;;1.30;1.20;;;15.60;41.90;;;;;;4938672;29;20864;-76
2022/03/21 06:50:07;;;;;;;1.57;1.47;;;16.20;40.70;;;;;;4938572;29;20495;-76
2022/03/21 06:52:35;;;;;;;1.20;1.10;;;16.70;39.20;;;;;;4938129;29;20987;-75
2022/03/21 06:55:02;;;;;;;1.17;1.07;;;17.20;38.40;;;;;;4938393;29;20550;-75
2022/03/21 06:57:29;;;;;;;1.47;1.37;;;17.10;37.70;;;;;;4938366;29;20522;-76
2022/03/21 06:59:56;;;;;;;1.43;1.33;;;17.30;38.10;;;;;;4938266;29;20530;-76
2022/03/21 07:02:23;;;;;;;1.57;1.47;;;17.20;38.00;;;;;;4937829;29;20484;-76
2022/03/21 07:04:50;;;;;;;1.67;1.27;;;17.80;37.50;;;;;;4938282;29;20451;-76
2022/03/21 07:07:17;;;;;;;1.30;1.20;;;18.50;37.10;;;;;;4937854;29;20939;-76
2022/03/21 07:09:44;;;;;;;1.50;1.40;;;18.70;36.10;;;;;;4938229;29;20444;-76
2022/03/21 07:12:11;;;;;;;1.57;1.47;;;18.60;36.10;;;;;;4937449;29;20468;-76
2022/03/21 07:14:38;;;;;;;1.63;1.53;;;17.90;36.00;;;;;;4937807;29;20952;-76
2022/03/21 07:17:05;;;;;;;1.30;1.20;;;18.10;37.00;;;;;;4937685;29;20515;-75
2022/03/21 07:19:31;;;;;;;1.60;1.50;;;19.00;36.40;;;;;;4937708;29;20562;-76
2022/03/21 07:22:00;;;;;;;1.30;1.20;;;19.60;34.90;;;;;;4937905;29;20503;-76
2022/03/21 07:24:28;;;;;;;1.40;1.30;;;20.00;33.50;;;;;;4937869;29;20550;-76
2022/03/21 07:26:55;;;;;;;1.53;1.43;;;20.20;34.10;;;;;;4937875;29;20452;-76
2022/03/21 07:29:22;;;;;;;1.87;1.77;;;20.00;34.20;;;;;;4937876;29;20471;-76
2022/03/21 07:31:48;;;;;;;1.20;1.10;;;19.10;34.30;;;;;;4937759;29;20518;-76
2022/03/21 07:34:15;;;;;;;1.60;1.50;;;18.40;35.30;;;;;;4937711;29;20463;-76
2022/03/21 07:36:42;;;;;;;1.40;1.30;;;17.60;36.20;;;;;;4937718;29;20507;-76
2022/03/21 07:39:08;;;;;;;1.50;1.40;;;17.40;37.60;;;;;;4937584;29;20543;-76
2022/03/21 07:41:36;;;;;;;1.20;1.10;;;17.20;37.20;;;;;;4937275;29;21016;-76
2022/03/21 07:44:03;;;;;;;1.30;1.20;;;16.60;38.30;;;;;;4937715;29;20503;-76
2022/03/21 07:49:15;;;;;;;1.30;1.20;;;15.10;40.90;;;;;;4937357;29;20491;-76
2022/03/21 07:51:43;;;;;;;1.33;1.23;;;14.00;42.90;;;;;;4937490;29;20518;-76
2022/03/21 07:54:10;;;;;;;1.40;1.30;;;13.50;44.40;;;;;;4937451;29;20451;-76
2022/03/21 07:56:38;;;;;;;1.37;1.27;;;13.10;45.60;;;;;;4937342;29;20464;-76
2022/03/21 07:59:05;;;;;;;1.40;1.30;;;12.70;46.40;;;;;;4936911;29;21148;-76
2022/03/21 08:01:31;;;;;;;1.40;1.30;;;12.60;46.10;;;;;;4937046;29;20499;-76
2022/03/21 08:03:59;;;;;;;1.33;1.23;;;12.50;45.10;;;;;;4937163;29;20456;-76
2022/03/21 08:06:26;;;;;;;1.70;1.60;;;12.40;45.90;;;;;;4937194;29;20456;-76
2022/03/21 08:08:53;;;;;;;1.47;1.37;;;12.20;46.30;;;;;;4937140;29;20452;-76
2022/03/21 08:11:20;;;;;;;1.10;1.00;;;12.40;46.30;;;;;;4937036;29;20999;-76
2022/03/21 08:13:50;;;;;;;1.50;1.40;;;12.40;45.70;;;;;;4936728;29;20947;-76
2022/03/21 08:16:19;;;;;;;1.40;1.30;;;12.40;46.30;;;;;;4937070;29;20534;-76
2022/03/21 08:18:48;;;;;;;1.57;1.47;;;12.40;46.10;;;;;;4936927;29;20492;-77
2022/03/21 08:21:15;;;;;;;1.60;1.50;;;12.20;46.00;;;;;;4936575;29;20475;-76
2022/03/21 08:23:42;;;;;;;1.30;1.20;;;12.40;46.00;;;;;;4936025;29;20503;-76
2022/03/21 08:26:09;;;;;;;1.50;1.40;;;12.50;46.00;;;;;;4936849;29;20538;-76
2022/03/21 08:28:36;;;;;;;1.50;1.40;;;12.90;46.50;;;;;;4936618;29;20966;-77
2022/03/21 08:31:04;;;;;;;1.60;1.50;;;12.90;45.70;;;;;;4936669;29;20483;-76
2022/03/21 08:33:31;;;;;;;1.50;1.40;;;13.00;46.10;;;;;;4936405;29;20944;-76
2022/03/21 08:35:58;;;;;;;1.40;1.30;;;12.80;46.50;;;;;;4936694;29;20456;-77
2022/03/21 08:38:24;;;;;;;1.37;1.27;;;13.00;46.50;;;;;;4936618;29;20503;-76
2022/03/21 08:40:51;;;;;;;1.60;1.50;;;13.20;45.90;;;;;;4936494;29;20917;-76
2022/03/21 08:43:18;;;;;;;1.40;1.30;;;13.40;46.10;;;;;;4936586;29;20451;-76
2022/03/21 08:45:47;;;;;;;1.53;1.43;;;13.70;46.30;;;;;;4936525;29;20462;-76
2022/03/21 08:48:15;;;;;;;1.67;1.57;;;13.70;45.60;;;;;;4936466;29;20464;-76
2022/03/21 08:50:42;;;;;;;1.37;1.27;;;14.00;45.30;;;;;;4936384;29;20456;-76
2022/03/21 08:53:10;;;;;;;1.50;1.40;;;14.40;45.30;;;;;;4936440;29;20447;-76
2022/03/21 08:55:36;;;;;;;1.40;1.30;;;14.60;45.20;;;;;;4937067;29;20466;-76
2022/03/21 08:58:03;;;;;;;1.50;1.40;;;14.60;44.20;;;;;;4936376;29;20455;-76
2022/03/21 09:00:30;;;;;;;1.70;1.60;;;14.10;44.30;;;;;;4935858;29;20913;-76
2022/03/21 09:02:56;;;;;;;1.50;1.40;;;14.20;45.40;;;;;;4936038;29;20460;-76
2022/03/21 09:05:24;;;;;;;1.40;1.30;;;14.50;44.50;;;;;;4936026;29;20815;-76
2022/03/21 09:07:51;;;;;;;1.40;1.30;;;14.30;44.30;;;;;;4935929;29;21066;-77
2022/03/21 09:10:18;;;;;;;1.70;1.60;;;14.00;45.00;;;;;;4936199;29;20503;-77
2022/03/21 09:12:45;;;;;;;1.30;1.20;;;13.80;45.30;;;;;;4936267;29;20471;-76
2022/03/21 09:15:12;;;;;;;1.50;1.40;;;14.00;46.40;;;;;;4936228;29;20459;-76
2022/03/21 09:17:39;;;;;;;1.30;1.20;;;14.30;45.70;;;;;;4936135;29;20890;-76
2022/03/21 09:20:08;;;;;;;1.60;1.50;;;14.10;45.70;;;;;;4936059;29;20539;-76
2022/03/21 09:22:36;;;;;;;1.43;1.33;;;14.30;45.60;;;;;;4936024;29;20471;-76
2022/03/21 09:25:03;;;;;;;1.60;1.50;;;14.30;45.80;;;;;;4936123;29;20448;-77
2022/03/21 09:27:30;;;;;;;1.53;1.43;;;14.00;45.50;;;;;;4936038;29;20451;-77
2022/03/21 09:29:57;;;;;;;1.57;1.47;;;13.90;46.80;;;;;;4935763;29;20459;-77
2022/03/21 09:32:25;;;;;;;1.50;1.40;;;14.00;46.00;;;;;;4935986;29;20476;-76
2022/03/21 09:34:51;;;;;;;1.57;1.47;;;14.10;47.20;;;;;;4936843;29;20456;-76
2022/03/21 09:37:18;;;;;;;1.63;1.53;;;14.30;46.70;;;;;;4939894;29;20451;-77
2022/03/21 09:39:46;;;;;;;1.60;1.50;;;14.30;46.10;;;;;;4939780;29;20483;-77
2022/03/21 09:42:14;;;;;;;1.70;1.60;;;14.70;47.20;;;;;;4939700;29;20892;-77
2022/03/21 09:44:40;;;;;;;1.50;1.40;;;14.70;45.80;;;;;;4939465;29;20940;-77
2022/03/21 09:49:58;;;;;;;1.60;1.50;;;15.00;45.00;;;;;;4939472;29;20408;-76
2022/03/21 09:52:25;;;;;;;1.60;1.50;;;15.20;46.00;;;;;;4939378;29;20475;-77
2022/03/21 09:54:55;;;;;;;1.47;1.37;;;15.40;45.90;;;;;;4939223;29;20459;-76
2022/03/21 09:57:22;;;;;;;1.73;1.63;;;15.40;45.60;;;;;;4939571;29;20456;-76
2022/03/21 09:59:49;;;;;;;1.77;1.67;;;15.40;46.00;;;;;;4938969;29;21070;-76
2022/03/21 10:02:18;;;;;;;1.70;1.60;;;15.50;46.60;;;;;;4939010;29;20487;-76
2022/03/21 10:04:46;;;;;;;1.73;1.63;;;15.40;46.70;;;;;;4939318;29;20452;-76
2022/03/21 10:07:15;;;;;;;1.80;1.70;;;15.50;47.00;;;;;;4939295;29;20539;-77
2022/03/21 10:09:42;;;;;;;1.80;1.70;;;15.40;46.00;;;;;;4938925;29;21018;-77
2022/03/21 10:12:12;;;;;;;1.70;1.60;;;15.40;45.70;;;;;;4939153;29;20522;-76
2022/03/21 10:14:39;;;;;;;1.73;1.63;;;15.10;45.70;;;;;;5037216;23;20542;-73
2022/03/21 10:17:07;;;;;;;1.57;1.47;;;15.30;46.60;;;;;;4938687;29;20860;-73
2022/03/21 10:19:52;;;;;;;1.93;1.83;;;15.40;46.50;;;;;;4938541;29;20493;-73
2022/03/21 10:22:20;;;;;;;1.93;1.83;;;15.30;45.50;;;;;;4938965;29;20431;-73
2022/03/21 10:24:49;;;;;;;1.70;1.60;;;15.30;46.80;;;;;;4938696;29;20544;-73
2022/03/21 10:27:31;;;;;;;2.07;1.97;;;15.40;46.50;;;;;;4938493;29;21010;-72
2022/03/21 10:30:01;;;;;;;1.67;1.57;;;15.40;45.60;;;;;;4938499;29;20896;-73
2022/03/21 10:32:36;;;;;;;1.77;1.67;;;15.40;46.10;;;;;;4938827;29;20452;-72
2022/03/21 10:35:07;;;;;;;1.87;1.77;;;15.50;46.10;;;;;;4938600;29;20467;-72
2022/03/21 10:37:48;;;;;;;2.17;2.07;;;15.70;45.80;;;;;;4938692;29;20519;-73
2022/03/21 10:40:21;;;;;;;4.50;1.93;;;15.60;45.30;;;;;;4938305;29;20821;-73
2022/03/21 10:42:56;;;;;;;1.50;1.40;;;15.80;45.60;;;;;;4938910;29;20451;-73
2022/03/21 10:45:24;;;;;;;2.00;1.90;;;15.80;45.60;;;;;;4938618;29;20471;-73
2022/03/21 10:47:51;;;;;;;1.87;1.77;;;15.80;46.40;;;;;;4937696;29;20531;-73
2022/03/21 10:50:28;;;;;;;2.57;1.80;;;15.40;45.70;;;;;;4938562;29;20444;-73
2022/03/21 10:53:04;;;;;;;1.77;1.63;;;15.50;46.40;;;;;;4938003;29;21011;-73
2022/03/21 10:55:31;;;;;;;1.83;1.73;;;15.60;46.90;;;;;;4938313;29;20439;-73
2022/03/21 10:57:59;;;;;;;2.23;1.90;;;15.80;45.90;;;;;;4938614;29;20447;-73
2022/03/21 11:00:28;;;;;;;1.80;1.70;;;15.90;45.50;;;;;;4938697;29;20487;-73
2022/03/21 11:02:58;;;;;;;1.60;1.50;;;16.00;46.10;;;;;;4938040;29;20496;-73
2022/03/21 11:05:27;;;;;;;1.60;1.50;;;15.90;45.50;;;;;;4938240;29;20959;-73
2022/03/21 11:07:54;;;;;;;1.70;1.60;;;15.90;46.00;;;;;;4938145;29;20455;-73
2022/03/21 11:10:22;;;;;;;2.10;2.00;;;16.20;46.10;;;;;;4938145;29;20499;-74
2022/03/21 11:12:49;;;;;;;1.83;1.73;;;16.10;45.00;;;;;;4938255;29;20452;-74
2022/03/21 11:15:17;;;;;;;1.60;1.50;;;16.00;44.90;;;;;;4937697;29;20463;-73
2022/03/21 11:17:45;;;;;;;2.30;2.20;;;16.30;45.90;;;;;;4938305;29;20526;-73
2022/03/21 11:20:14;;;;;;;1.87;1.77;;;16.30;45.80;;;;;;4937798;29;20543;-73
2022/03/21 11:22:43;;;;;;;1.70;1.60;;;16.50;45.00;;;;;;4937836;29;20451;-73
2022/03/21 11:25:12;;;;;;;1.90;1.80;;;16.80;45.10;;;;;;4937780;29;20471;-73
2022/03/21 11:28:01;;;;;;;2.10;2.00;;;16.70;44.90;;;;;;4937784;29;20458;-73
2022/03/21 11:30:41;;;;;;;1.87;1.77;;;16.60;44.50;;;;;;4937873;29;20451;-73
2022/03/21 11:33:17;;;;;;;1.90;1.80;;;16.40;44.80;;;;;;4937748;29;20439;-73
2022/03/21 11:35:51;;;;;;;1.60;1.50;;;16.60;44.50;;;;;;4937817;29;20517;-72
2022/03/21 11:38:25;;;;;;;1.90;1.80;;;16.70;45.50;;;;;;4937825;29;20521;-73
2022/03/21 11:40:52;;;;;;;1.97;1.87;;;16.90;44.70;;;;;;4937525;29;20491;-73
2022/03/21 11:43:30;;;;;;;1.90;1.80;;;16.90;44.30;;;;;;4937098;29;20503;-73
2022/03/21 11:45:58;;;;;;;1.70;1.60;;;17.00;43.80;;;;;;4937568;29;20443;-74
2022/03/21 11:48:38;;;;;;;1.83;1.73;;;16.90;43.70;;;;;;4937450;29;20467;-73
2022/03/21 11:51:29;;;;;;;2.10;2.00;;;16.80;43.30;;;;;;4937342;29;20530;-73
2022/03/21 11:53:57;;;;;;;1.93;1.83;;;16.80;43.10;;;;;;4937187;29;20480;-73
2022/03/21 11:56:56;;;;;;;1.93;1.83;;;17.00;44.20;;;;;;4938443;29;20466;-74
2022/03/21 12:00:00;;;;;;;2.00;1.90;;;17.20;43.00;;;;;;4936639;29;20930;-73
2022/03/21 12:03:00;;;;;;;1.83;1.73;;;17.20;42.80;;;;;;4936698;29;20935;-73
2022/03/21 12:05:51;;;;;;;1.90;1.80;;;17.50;43.10;;;;;;4939292;29;20436;-73
2022/03/21 12:08:44;;;;;;;1.60;1.50;;;18.10;42.20;;;;;;4949928;29;20415;-74
2022/03/21 12:11:50;;;;;;;1.87;1.77;;;18.50;40.90;;;;;;4952957;28;20444;-74
2022/03/21 12:14:40;;;;;;;2.00;1.90;;;18.80;39.90;;;;;;4936439;29;20972;-73
2022/03/21 12:17:36;;;;;;;1.70;1.60;;;19.00;40.50;;;;;;4936809;29;20497;-74
2022/03/21 12:20:18;;;;;;;1.97;1.87;;;19.30;39.50;;;;;;4937116;29;20484;-74
2022/03/21 12:22:48;;;;;;;1.90;1.80;;;19.30;39.10;;;;;;4937398;29;20770;-74
2022/03/21 12:25:21;;;;;;;1.80;1.70;;;19.20;39.90;;;;;;4936695;29;20562;-74
2022/03/21 12:27:51;;;;;;;1.70;1.60;;;19.00;39.70;;;;;;4937224;29;20468;-74
2022/03/21 12:30:38;;;;;;;1.80;1.70;;;19.00;39.50;;;;;;4936677;29;20454;-73
2022/03/21 12:33:24;;;;;;;2.00;1.90;;;19.40;40.50;;;;;;4936511;29;20883;-72
2022/03/21 12:36:07;;;;;;;2.00;1.90;;;19.90;38.50;;;;;;4936241;29;20904;-74
2022/03/21 12:38:37;;;;;;;1.60;1.50;;;20.10;38.20;;;;;;4936520;29;20438;-72
2022/03/21 12:41:09;;;;;;;2.10;2.00;;;20.40;38.00;;;;;;4937139;29;20522;-73
2022/03/21 12:43:49;;;;;;;2.03;1.80;;;20.80;37.70;;;;;;4937251;29;20472;-74
2022/03/21 12:46:18;;;;;;;1.67;1.57;;;21.00;36.10;;;;;;4936242;29;20472;-74
2022/03/21 12:48:47;;;;;;;1.97;1.50;;;20.40;37.10;;;;;;4936240;29;20448;-73
2022/03/21 12:51:23;;;;;;;1.87;1.77;;;20.10;37.50;;;;;;4935866;29;20447;-73
2022/03/21 12:53:51;;;;;;;2.03;1.93;;;20.20;36.70;;;;;;4936157;29;20531;-73
2022/03/21 12:56:21;;;;;;;1.70;1.60;;;20.30;37.70;;;;;;4936970;29;20470;-74
2022/03/21 12:58:49;;;;;;;1.80;1.70;;;20.10;37.40;;;;;;4936899;29;20455;-74
2022/03/21 13:01:17;;;;;;;1.70;1.60;;;19.90;37.60;;;;;;4935711;29;20519;-74
2022/03/21 13:03:44;;;;;;;1.67;1.57;;;19.70;36.60;;;;;;4936150;29;20475;-73
2022/03/21 13:11:46;;;;;;;1.97;1.87;;;19.10;37.80;;;;;;4935768;29;20427;-73
2022/03/21 13:14:15;;;;;;;1.63;1.53;;;19.00;38.30;;;;;;4935759;29;20500;-73
2022/03/21 13:16:49;;;;;;;1.80;1.70;;;18.90;37.80;;;;;;4935987;29;20447;-73
2022/03/21 13:19:19;;;;;;;1.80;1.70;;;18.90;38.10;;;;;;4936621;29;20451;-73
2022/03/21 13:21:46;;;;;;;1.80;1.70;;;18.90;37.70;;;;;;4935882;29;20542;-73
2022/03/21 13:24:14;;;;;;;1.80;1.70;;;18.80;37.40;;;;;;4935984;29;20476;-74
2022/03/21 13:26:44;;;;;;;1.80;1.70;;;18.80;37.80;;;;;;4936165;29;20459;-73
2022/03/21 13:29:13;;;;;;;1.90;1.80;;;19.00;37.80;;;;;;4935499;29;20966;-73
2022/03/21 13:31:40;;;;;;;2.00;1.90;;;19.20;37.70;;;;;;4935792;29;20462;-73
2022/03/21 13:34:11;;;;;;;1.90;1.80;;;19.20;37.20;;;;;;4935618;29;20883;-74
2022/03/21 13:36:42;;;;;;;2.30;2.00;;;19.30;37.20;;;;;;4935601;29;20840;-74
2022/03/21 13:39:12;;;;;;;1.80;1.70;;;19.10;36.80;;;;;;4935781;29;20625;-74
2022/03/21 13:41:55;;;;;;;2.27;1.80;;;18.90;36.70;;;;;;4935673;29;20578;-73
2022/03/21 13:44:23;;;;;;;1.73;1.63;;;18.90;36.80;;;;;;4935592;29;20475;-73
2022/03/21 13:47:01;;;;;;;1.60;1.50;;;18.80;37.80;;;;;;4935610;29;20447;-74
2022/03/21 13:49:42;;;;;;;1.80;1.70;;;19.10;37.90;;;;;;4935219;29;21022;-73
2022/03/21 13:52:09;;;;;;;2.13;2.03;;;19.60;36.50;;;;;;4935271;29;20881;-73
2022/03/21 13:54:49;;;;;;;1.70;1.60;;;19.80;36.80;;;;;;4935426;29;21038;-73
2022/03/21 13:57:17;;;;;;;1.40;1.30;;;20.20;36.10;;;;;;4935542;29;20776;-74
2022/03/21 13:59:58;;;;;;;1.63;1.53;;;20.10;35.60;;;;;;4936294;29;20447;-73
2022/03/21 14:02:24;;;;;;;1.77;1.67;;;20.00;36.50;;;;;;4935484;29;20471;-73
2022/03/21 14:04:53;;;;;;;1.50;1.40;;;20.30;36.10;;;;;;4935383;29;20463;-73
2022/03/21 14:07:20;;;;;;;1.50;1.40;;;20.40;35.80;;;;;;4935306;29;20543;-73
2022/03/21 14:09:50;;;;;;;1.87;1.67;;;20.80;35.80;;;;;;4935353;29;20459;-73
2022/03/21 14:12:18;;;;;;;1.60;1.50;;;21.10;35.40;;;;;;4935619;29;20535;-73
2022/03/21 14:14:44;;;;;;;1.70;1.60;;;21.50;35.50;;;;;;4934939;29;20571;-74
2022/03/21 14:17:11;;;;;;;1.63;1.53;;;21.70;35.00;;;;;;4935294;29;20870;-74
2022/03/21 14:19:39;;;;;;;1.60;1.50;;;21.90;34.50;;;;;;4935403;29;20457;-74
2022/03/21 14:22:06;;;;;;;1.63;1.53;;;21.70;33.90;;;;;;4937481;29;20495;-73
2022/03/21 14:24:33;;;;;;;1.80;1.70;;;21.40;34.70;;;;;;4938514;29;20526;-73
2022/03/21 14:26:59;;;;;;;1.57;1.47;;;21.80;34.60;;;;;;4938938;29;20540;-73
2022/03/21 14:29:27;;;;;;;1.97;1.70;;;22.30;33.40;;;;;;4938846;29;20447;-74
2022/03/21 14:31:54;;;;;;;1.53;1.43;;;22.80;32.90;;;;;;4938892;29;20813;-73
2022/03/21 14:34:22;;;;;;;1.43;1.33;;;23.40;32.00;;;;;;4938568;29;20467;-74
2022/03/21 14:36:49;;;;;;;1.40;1.30;;;23.90;31.00;;;;;;4938687;29;20499;-74
2022/03/21 14:39:16;;;;;;;1.60;1.50;;;24.20;30.80;;;;;;4938566;29;20546;-74
2022/03/21 14:41:44;;;;;;;1.50;1.40;;;24.90;30.20;;;;;;4938191;29;20888;-74
2022/03/21 14:44:11;;;;;;;1.40;1.30;;;25.40;29.90;;;;;;4938432;29;20499;-74
2022/03/21 14:46:39;;;;;;;1.47;1.37;;;26.20;28.90;;;;;;4938485;29;20511;-73
2022/03/21 14:49:06;;;;;;;1.50;1.40;;;26.20;28.60;;;;;;4938420;29;20507;-74
2022/03/21 14:51:34;;;;;;;1.47;1.37;;;26.50;27.80;;;;;;4939032;29;20487;-74
2022/03/21 14:54:00;;;;;;;1.60;1.50;;;26.80;28.10;;;;;;4938255;29;20479;-74
2022/03/21 14:56:28;;;;;;;1.37;1.20;;;27.10;28.00;;;;;;4938253;29;20589;-74
2022/03/21 14:58:56;;;;;;;2.03;1.33;;;27.10;28.10;;;;;;4938176;29;20451;-73
2022/03/21 15:01:23;;;;;;;1.83;1.30;;;27.50;28.10;;;;;;4938045;29;20490;-73
2022/03/21 15:03:51;;;;;;;1.47;1.30;;;27.20;27.60;;;;;;4938069;29;20472;-73
2022/03/21 15:06:18;;;;;;;1.37;1.27;;;27.40;28.00;;;;;;4938094;29;20499;-73
2022/03/21 15:08:44;;;;;;;1.13;1.00;;;27.10;27.80;;;;;;4938100;29;20455;-73
2022/03/21 15:11:11;;;;;;;1.83;1.33;;;27.30;27.60;;;;;;4938200;29;20448;-74
2022/03/21 15:13:38;;;;;;;1.50;1.40;;;27.00;27.10;;;;;;4937859;29;20571;-73
2022/03/21 15:16:06;;;;;;;1.40;1.30;;;27.00;27.60;;;;;;4937790;29;20963;-73
2022/03/21 15:18:33;;;;;;;1.57;1.40;;;26.90;27.70;;;;;;4937785;29;20451;-73
2022/03/21 15:21:01;;;;;;;1.40;1.30;;;26.20;28.20;;;;;;4937766;29;20519;-72
2022/03/21 15:23:28;;;;;;;1.40;1.17;;;25.40;29.00;;;;;;4938033;29;20476;-73
2022/03/21 15:25:55;;;;;;;1.30;1.20;;;25.00;29.50;;;;;;4937856;29;20459;-72
2022/03/21 15:28:22;;;;;;;1.50;1.40;;;24.50;30.10;;;;;;4938305;29;20459;-72
2022/03/21 15:30:49;;;;;;;1.10;1.00;;;23.90;30.60;;;;;;4937278;29;20511;-72
2022/03/21 15:33:15;;;;;;;1.30;1.13;;;23.20;31.40;;;;;;4936956;29;20471;-73
2022/03/21 15:35:42;;;;;;;1.30;1.20;;;22.60;32.10;;;;;;4937547;29;20495;-73
2022/03/21 15:43:35;;;;;;;1.20;1.10;;;20.90;34.40;;;;;;4915722;29;20478;-72
2022/03/21 15:46:05;;;;;;;1.50;1.40;;;20.60;34.90;;;;;;4937329;29;20539;-74
2022/03/21 15:48:31;;;;;;;1.20;1.10;;;20.30;35.50;;;;;;4937040;29;20542;-75
2022/03/21 15:50:58;;;;;;;1.43;1.33;;;20.20;35.80;;;;;;4937313;29;20448;-75
2022/03/21 15:53:27;;;;;;;1.30;1.20;;;20.20;35.80;;;;;;4936961;29;20855;-74
2022/03/21 15:55:55;;;;;;;1.30;1.20;;;19.90;36.20;;;;;;4936869;29;21018;-75
2022/03/21 15:58:22;;;;;;;1.50;1.40;;;19.90;36.20;;;;;;4937298;29;20448;-74
2022/03/21 16:00:49;;;;;;;1.60;1.50;;;19.80;36.40;;;;;;4937062;29;20498;-74
2022/03/21 16:03:15;;;;;;;1.50;1.40;;;19.70;36.60;;;;;;4936701;29;21010;-74
2022/03/21 16:05:43;;;;;;;1.57;1.47;;;19.70;36.80;;;;;;4937000;29;20558;-74
2022/03/21 16:08:10;;;;;;;1.50;1.40;;;19.70;36.90;;;;;;4936977;29;20857;-74
2022/03/21 16:10:38;;;;;;;1.40;1.30;;;19.50;37.40;;;;;;4937498;29;20467;-75
2022/03/21 16:13:14;;;;;;;1.23;1.10;;;19.30;37.10;;;;;;4936713;29;20987;-72
2022/03/21 16:15:42;;;;;;;1.43;1.33;;;19.00;37.90;;;;;;4936571;29;20628;-74
2022/03/21 16:18:12;;;;;;;1.30;1.20;;;18.90;37.90;;;;;;4936367;29;20957;-74
2022/03/21 16:20:40;;;;;;;1.40;1.30;;;18.90;38.60;;;;;;4936414;29;20452;-74
2022/03/21 16:23:07;;;;;;;1.30;1.20;;;18.80;38.60;;;;;;4936767;29;20575;-73
2022/03/21 16:25:34;;;;;;;1.77;1.47;;;18.80;38.60;;;;;;4936710;29;20868;-74
2022/03/21 16:28:03;;;;;;;1.30;1.20;;;18.70;38.60;;;;;;4936583;29;20460;-74
2022/03/21 16:30:31;;;;;;;1.83;1.73;;;18.80;38.70;;;;;;4936380;29;20456;-73
2022/03/21 16:32:58;;;;;;;1.40;1.30;;;18.60;39.10;;;;;;4935977;29;20450;-74
2022/03/21 16:35:25;;;;;;;1.50;1.40;;;18.60;39.40;;;;;;4936449;29;20452;-74
2022/03/21 16:37:52;;;;;;;1.80;1.70;;;18.50;39.70;;;;;;4936259;29;20481;-74
2022/03/21 16:40:20;;;;;;;2.07;1.43;;;18.40;39.80;;;;;;4936325;29;20510;-74
2022/03/21 16:42:48;;;;;;;1.83;1.73;;;18.40;39.80;;;;;;4936322;29;20490;-74
2022/03/21 16:45:16;;;;;;;2.50;2.40;;;18.40;40.30;;;;;;4935470;29;20475;-71
2022/03/21 16:47:43;;;;;;;2.00;1.90;;;18.40;40.30;;;;;;4936187;29;20456;-72
2022/03/21 16:50:12;;;;;;;1.53;1.43;;;18.30;40.00;;;;;;4935933;29;20960;-74
2022/03/21 16:52:40;;;;;;;1.90;1.80;;;18.20;39.90;;;;;;4935936;29;20955;-74
2022/03/21 16:55:09;;;;;;;1.70;1.60;;;18.20;39.80;;;;;;4935893;29;20526;-74
2022/03/21 16:57:36;;;;;;;2.00;1.90;;;18.10;40.00;;;;;;4936018;29;20943;-74
2022/03/21 17:00:06;;;;;;;1.40;1.30;;;18.00;40.10;;;;;;4936328;29;20456;-74
2022/03/21 17:02:34;;;;;;;1.30;1.20;;;17.90;40.20;;;;;;4936386;29;20490;-74
2022/03/21 17:05:01;;;;;;;1.27;1.17;;;17.90;40.10;;;;;;4936587;29;20531;-73
2022/03/21 17:07:28;;;;;;;1.87;1.30;;;17.80;39.90;;;;;;4935920;29;20458;-74
2022/03/21 17:09:54;;;;;;;1.50;1.40;;;17.70;39.50;;;;;;4936442;29;20498;-74
2022/03/21 17:12:21;;;;;;;1.80;1.40;;;17.50;39.40;;;;;;4936134;29;20888;-74
2022/03/21 17:14:50;;;;;;;1.27;1.10;;;17.50;39.60;;;;;;4935953;29;20487;-73
2022/03/21 17:17:17;;;;;;;1.40;1.30;;;17.40;40.00;;;;;;4935666;29;20800;-74
2022/03/21 17:25:14;;;;;;;1.30;1.10;;;17.10;39.80;;;;;;4935630;29;20974;-73
2022/03/21 17:27:41;;;;;;;1.73;1.13;;;16.90;40.30;;;;;;4935783;29;20503;-74
2022/03/21 17:30:10;;;;;;;1.20;1.10;;;16.90;40.10;;;;;;4935711;29;20455;-74
2022/03/21 17:32:38;;;;;;;1.23;1.13;;;16.90;40.10;;;;;;4935666;29;20448;-73
2022/03/21 17:35:07;;;;;;;1.20;1.10;;;16.90;40.10;;;;;;4935778;29;20880;-73